sensor_id;sensor_type;location;lat;lon;timestamp;P1;durP1;ratioP1;P2;durP2;ratioP2
63555;SDS011;49700;48.072;7.800;2023-01-26T00:01:22;27.57;;;17.20;;
63555;SDS011;49700;48.072;7.800;2023-01-26T00:03:51;29.00;;;17.23;;
63555;SDS011;49700;48.072;7.800;2023-01-26T00:06:17;31.23;;;16.83;;
63555;SDS011;49700;48.072;7.800;2023-01-26T00:08:47;31.52;;;17.67;;
63555;SDS011;49700;48.072;7.800;2023-01-26T00:11:15;34.85;;;17.02;;
63555;SDS011;49700;48.072;7.800;2023-01-26T00:13:42;32.33;;;17.83;;
63555;SDS011;49700;48.072;7.800;2023-01-26T00:16:12;22.97;;;13.73;;
63555;SDS011;49700;48.072;7.800;2023-01-26T00:18:39;28.15;;;17.92;;
63555;SDS011;49700;48.072;7.800;2023-01-26T00:21:05;29.67;;;17.70;;
63555;SDS011;49700;48.072;7.800;2023-01-26T00:23:32;34.42;;;18.50;;
63555;SDS011;49700;48.072;7.800;2023-01-26T00:26:01;29.42;;;16.85;;
63555;SDS011;49700;48.072;7.800;2023-01-26T00:28:32;29.73;;;13.27;;
63555;SDS011;49700;48.072;7.800;2023-01-26T00:31:15;26.95;;;15.80;;
63555;SDS011;49700;48.072;7.800;2023-01-26T00:33:45;22.23;;;13.13;;
63555;SDS011;49700;48.072;7.800;2023-01-26T00:36:14;28.02;;;18.60;;
63555;SDS011;49700;48.072;7.800;2023-01-26T00:38:58;20.15;;;12.00;;
63555;SDS011;49700;48.072;7.800;2023-01-26T00:41:38;24.13;;;15.38;;
63555;SDS011;49700;48.072;7.800;2023-01-26T00:44:22;30.88;;;15.93;;
63555;SDS011;49700;48.072;7.800;2023-01-26T00:46:50;28.75;;;13.38;;
63555;SDS011;49700;48.072;7.800;2023-01-26T00:49:15;20.63;;;12.10;;
63555;SDS011;49700;48.072;7.800;2023-01-26T00:51:41;30.27;;;13.57;;
63555;SDS011;49700;48.072;7.800;2023-01-26T00:54:08;20.45;;;12.52;;
63555;SDS011;49700;48.072;7.800;2023-01-26T00:56:47;21.52;;;11.50;;
63555;SDS011;49700;48.072;7.800;2023-01-26T00:59:12;27.17;;;12.82;;
63555;SDS011;49700;48.072;7.800;2023-01-26T01:01:45;34.85;;;14.95;;
63555;SDS011;49700;48.072;7.800;2023-01-26T01:04:14;28.42;;;16.70;;
63555;SDS011;49700;48.072;7.800;2023-01-26T01:06:43;27.55;;;14.82;;
63555;SDS011;49700;48.072;7.800;2023-01-26T01:09:11;30.38;;;16.48;;
63555;SDS011;49700;48.072;7.800;2023-01-26T01:11:39;28.33;;;13.35;;
63555;SDS011;49700;48.072;7.800;2023-01-26T01:14:07;23.13;;;13.32;;
63555;SDS011;49700;48.072;7.800;2023-01-26T01:16:32;28.30;;;13.37;;
63555;SDS011;49700;48.072;7.800;2023-01-26T01:19:02;24.30;;;11.95;;
63555;SDS011;49700;48.072;7.800;2023-01-26T01:21:28;19.15;;;10.98;;
63555;SDS011;49700;48.072;7.800;2023-01-26T01:23:59;28.77;;;15.45;;
63555;SDS011;49700;48.072;7.800;2023-01-26T01:26:27;23.48;;;12.15;;
63555;SDS011;49700;48.072;7.800;2023-01-26T01:28:53;26.90;;;14.33;;
63555;SDS011;49700;48.072;7.800;2023-01-26T01:31:21;28.80;;;12.52;;
63555;SDS011;49700;48.072;7.800;2023-01-26T01:33:58;22.05;;;12.55;;
63555;SDS011;49700;48.072;7.800;2023-01-26T01:36:24;27.03;;;14.13;;
63555;SDS011;49700;48.072;7.800;2023-01-26T01:38:50;22.75;;;12.90;;
63555;SDS011;49700;48.072;7.800;2023-01-26T01:41:17;24.40;;;13.43;;
63555;SDS011;49700;48.072;7.800;2023-01-26T01:44:14;23.05;;;11.45;;
63555;SDS011;49700;48.072;7.800;2023-01-26T01:46:52;32.88;;;16.10;;
63555;SDS011;49700;48.072;7.800;2023-01-26T01:52:07;22.77;;;12.70;;
63555;SDS011;49700;48.072;7.800;2023-01-26T01:54:39;29.38;;;13.80;;
63555;SDS011;49700;48.072;7.800;2023-01-26T01:57:13;21.48;;;13.05;;
63555;SDS011;49700;48.072;7.800;2023-01-26T02:00:11;22.27;;;12.13;;
63555;SDS011;49700;48.072;7.800;2023-01-26T02:02:57;28.23;;;12.93;;
63555;SDS011;49700;48.072;7.800;2023-01-26T02:05:51;25.35;;;11.95;;
63555;SDS011;49700;48.072;7.800;2023-01-26T02:08:21;24.20;;;12.05;;
63555;SDS011;49700;48.072;7.800;2023-01-26T02:10:53;24.60;;;12.02;;
63555;SDS011;49700;48.072;7.800;2023-01-26T02:13:25;20.80;;;12.10;;
63555;SDS011;49700;48.072;7.800;2023-01-26T02:15:55;25.63;;;12.85;;
63555;SDS011;49700;48.072;7.800;2023-01-26T02:18:26;24.45;;;14.00;;
63555;SDS011;49700;48.072;7.800;2023-01-26T02:20:54;28.17;;;13.80;;
63555;SDS011;49700;48.072;7.800;2023-01-26T02:28:25;20.35;;;10.85;;
63555;SDS011;49700;48.072;7.800;2023-01-26T02:30:54;31.27;;;13.35;;
63555;SDS011;49700;48.072;7.800;2023-01-26T02:33:25;28.02;;;13.93;;
63555;SDS011;49700;48.072;7.800;2023-01-26T02:35:59;29.15;;;12.32;;
63555;SDS011;49700;48.072;7.800;2023-01-26T02:38:36;21.95;;;14.55;;
63555;SDS011;49700;48.072;7.800;2023-01-26T02:41:08;21.00;;;13.35;;
63555;SDS011;49700;48.072;7.800;2023-01-26T02:43:39;31.05;;;13.60;;
63555;SDS011;49700;48.072;7.800;2023-01-26T02:46:05;24.30;;;13.70;;
63555;SDS011;49700;48.072;7.800;2023-01-26T02:48:38;20.33;;;12.90;;
63555;SDS011;49700;48.072;7.800;2023-01-26T02:51:22;23.55;;;12.18;;
63555;SDS011;49700;48.072;7.800;2023-01-26T02:53:48;21.90;;;12.03;;
63555;SDS011;49700;48.072;7.800;2023-01-26T02:56:16;27.58;;;13.77;;
63555;SDS011;49700;48.072;7.800;2023-01-26T02:58:42;19.97;;;11.77;;
63555;SDS011;49700;48.072;7.800;2023-01-26T03:01:15;20.02;;;11.98;;
63555;SDS011;49700;48.072;7.800;2023-01-26T03:03:54;24.55;;;15.30;;
63555;SDS011;49700;48.072;7.800;2023-01-26T03:06:21;23.90;;;12.38;;
63555;SDS011;49700;48.072;7.800;2023-01-26T03:08:55;26.65;;;12.15;;
63555;SDS011;49700;48.072;7.800;2023-01-26T03:11:21;23.03;;;13.03;;
63555;SDS011;49700;48.072;7.800;2023-01-26T03:13:46;27.70;;;13.50;;
63555;SDS011;49700;48.072;7.800;2023-01-26T03:16:11;25.37;;;13.50;;
63555;SDS011;49700;48.072;7.800;2023-01-26T03:18:39;23.17;;;14.40;;
63555;SDS011;49700;48.072;7.800;2023-01-26T03:21:24;25.60;;;12.98;;
63555;SDS011;49700;48.072;7.800;2023-01-26T03:24:11;23.17;;;12.30;;
63555;SDS011;49700;48.072;7.800;2023-01-26T03:26:58;25.35;;;11.00;;
63555;SDS011;49700;48.072;7.800;2023-01-26T03:29:43;20.02;;;11.63;;
63555;SDS011;49700;48.072;7.800;2023-01-26T03:32:09;19.88;;;10.70;;
63555;SDS011;49700;48.072;7.800;2023-01-26T03:34:36;30.90;;;17.05;;
63555;SDS011;49700;48.072;7.800;2023-01-26T03:37:03;28.60;;;14.88;;
63555;SDS011;49700;48.072;7.800;2023-01-26T03:39:38;21.20;;;12.55;;
63555;SDS011;49700;48.072;7.800;2023-01-26T03:42:23;23.65;;;10.90;;
63555;SDS011;49700;48.072;7.800;2023-01-26T03:45:07;23.92;;;12.15;;
63555;SDS011;49700;48.072;7.800;2023-01-26T03:47:51;25.05;;;11.30;;
63555;SDS011;49700;48.072;7.800;2023-01-26T03:50:36;24.23;;;11.52;;
63555;SDS011;49700;48.072;7.800;2023-01-26T03:53:21;23.10;;;11.43;;
63555;SDS011;49700;48.072;7.800;2023-01-26T03:56:09;24.33;;;11.20;;
63555;SDS011;49700;48.072;7.800;2023-01-26T03:58:52;19.02;;;10.20;;
63555;SDS011;49700;48.072;7.800;2023-01-26T04:01:21;25.77;;;12.05;;
63555;SDS011;49700;48.072;7.800;2023-01-26T04:03:59;21.23;;;12.35;;
63555;SDS011;49700;48.072;7.800;2023-01-26T04:06:55;19.70;;;10.40;;
63555;SDS011;49700;48.072;7.800;2023-01-26T04:09:48;23.55;;;11.35;;
63555;SDS011;49700;48.072;7.800;2023-01-26T04:12:13;23.83;;;12.97;;
63555;SDS011;49700;48.072;7.800;2023-01-26T04:14:50;18.75;;;10.70;;
63555;SDS011;49700;48.072;7.800;2023-01-26T04:17:34;17.40;;;9.50;;
63555;SDS011;49700;48.072;7.800;2023-01-26T04:20:18;19.02;;;10.88;;
63555;SDS011;49700;48.072;7.800;2023-01-26T04:23:02;22.90;;;8.73;;
63555;SDS011;49700;48.072;7.800;2023-01-26T04:25:28;20.33;;;9.83;;
63555;SDS011;49700;48.072;7.800;2023-01-26T04:28:03;22.75;;;10.48;;
63555;SDS011;49700;48.072;7.800;2023-01-26T04:30:29;20.03;;;10.40;;
63555;SDS011;49700;48.072;7.800;2023-01-26T04:33:00;19.95;;;11.35;;
63555;SDS011;49700;48.072;7.800;2023-01-26T04:35:46;20.52;;;9.43;;
63555;SDS011;49700;48.072;7.800;2023-01-26T04:38:15;19.23;;;8.77;;
63555;SDS011;49700;48.072;7.800;2023-01-26T04:40:41;17.15;;;9.93;;
63555;SDS011;49700;48.072;7.800;2023-01-26T04:43:24;18.33;;;8.60;;
63555;SDS011;49700;48.072;7.800;2023-01-26T04:45:58;19.50;;;10.00;;
63555;SDS011;49700;48.072;7.800;2023-01-26T04:48:44;21.77;;;9.63;;
63555;SDS011;49700;48.072;7.800;2023-01-26T04:51:16;15.67;;;10.60;;
63555;SDS011;49700;48.072;7.800;2023-01-26T04:54:04;18.67;;;10.90;;
63555;SDS011;49700;48.072;7.800;2023-01-26T04:56:45;21.77;;;10.65;;
63555;SDS011;49700;48.072;7.800;2023-01-26T04:59:12;21.17;;;11.05;;
63555;SDS011;49700;48.072;7.800;2023-01-26T05:01:43;12.40;;;8.60;;
63555;SDS011;49700;48.072;7.800;2023-01-26T05:04:22;19.38;;;10.02;;
63555;SDS011;49700;48.072;7.800;2023-01-26T05:07:09;15.10;;;9.02;;
63555;SDS011;49700;48.072;7.800;2023-01-26T05:09:47;16.90;;;9.07;;
63555;SDS011;49700;48.072;7.800;2023-01-26T05:12:38;16.85;;;8.13;;
63555;SDS011;49700;48.072;7.800;2023-01-26T05:15:15;15.07;;;9.55;;
63555;SDS011;49700;48.072;7.800;2023-01-26T05:18:00;14.40;;;8.05;;
63555;SDS011;49700;48.072;7.800;2023-01-26T05:20:56;17.15;;;10.80;;
63555;SDS011;49700;48.072;7.800;2023-01-26T05:23:30;13.82;;;9.15;;
63555;SDS011;49700;48.072;7.800;2023-01-26T05:26:22;18.05;;;10.40;;
63555;SDS011;49700;48.072;7.800;2023-01-26T05:29:00;11.98;;;9.15;;
63555;SDS011;49700;48.072;7.800;2023-01-26T05:31:34;16.67;;;9.07;;
63555;SDS011;49700;48.072;7.800;2023-01-26T05:34:09;14.85;;;8.30;;
63555;SDS011;49700;48.072;7.800;2023-01-26T05:36:47;17.60;;;7.63;;
63555;SDS011;49700;48.072;7.800;2023-01-26T05:39:26;17.08;;;9.07;;
63555;SDS011;49700;48.072;7.800;2023-01-26T05:42:03;16.27;;;8.18;;
63555;SDS011;49700;48.072;7.800;2023-01-26T05:45:07;11.38;;;7.53;;
63555;SDS011;49700;48.072;7.800;2023-01-26T05:47:39;12.98;;;6.88;;
63555;SDS011;49700;48.072;7.800;2023-01-26T05:50:10;18.52;;;6.68;;
63555;SDS011;49700;48.072;7.800;2023-01-26T05:53:24;16.02;;;8.07;;
63555;SDS011;49700;48.072;7.800;2023-01-26T05:58:31;14.05;;;7.65;;
63555;SDS011;49700;48.072;7.800;2023-01-26T06:01:02;16.20;;;9.70;;
63555;SDS011;49700;48.072;7.800;2023-01-26T06:03:51;16.00;;;9.63;;
63555;SDS011;49700;48.072;7.800;2023-01-26T06:06:38;17.25;;;11.25;;
63555;SDS011;49700;48.072;7.800;2023-01-26T06:09:37;20.73;;;11.60;;
63555;SDS011;49700;48.072;7.800;2023-01-26T06:12:35;19.10;;;9.57;;
63555;SDS011;49700;48.072;7.800;2023-01-26T06:15:40;26.35;;;9.80;;
63555;SDS011;49700;48.072;7.800;2023-01-26T06:21:34;11.95;;;10.43;;
63555;SDS011;49700;48.072;7.800;2023-01-26T06:24:36;24.77;;;9.43;;
63555;SDS011;49700;48.072;7.800;2023-01-26T06:27:05;22.45;;;10.65;;
63555;SDS011;49700;48.072;7.800;2023-01-26T06:30:03;15.63;;;10.25;;
63555;SDS011;49700;48.072;7.800;2023-01-26T06:32:33;23.60;;;9.43;;
63555;SDS011;49700;48.072;7.800;2023-01-26T06:35:38;16.70;;;9.60;;
63555;SDS011;49700;48.072;7.800;2023-01-26T06:38:27;25.38;;;11.75;;
63555;SDS011;49700;48.072;7.800;2023-01-26T06:41:13;17.15;;;8.55;;
63555;SDS011;49700;48.072;7.800;2023-01-26T06:43:59;18.20;;;8.98;;
63555;SDS011;49700;48.072;7.800;2023-01-26T06:47:00;18.65;;;10.00;;
63555;SDS011;49700;48.072;7.800;2023-01-26T06:53:03;18.45;;;8.90;;
63555;SDS011;49700;48.072;7.800;2023-01-26T06:56:17;18.25;;;9.70;;
63555;SDS011;49700;48.072;7.800;2023-01-26T06:59:13;21.10;;;9.13;;
63555;SDS011;49700;48.072;7.800;2023-01-26T07:02:14;20.30;;;10.70;;
63555;SDS011;49700;48.072;7.800;2023-01-26T07:05:18;27.73;;;15.23;;
63555;SDS011;49700;48.072;7.800;2023-01-26T07:07:55;23.25;;;11.60;;
63555;SDS011;49700;48.072;7.800;2023-01-26T07:10:54;19.45;;;10.00;;
63555;SDS011;49700;48.072;7.800;2023-01-26T07:14:07;23.15;;;11.15;;
63555;SDS011;49700;48.072;7.800;2023-01-26T07:16:53;20.05;;;9.90;;
63555;SDS011;49700;48.072;7.800;2023-01-26T07:19:41;21.20;;;12.47;;
63555;SDS011;49700;48.072;7.800;2023-01-26T07:25:22;26.08;;;13.70;;
63555;SDS011;49700;48.072;7.800;2023-01-26T07:27:57;24.05;;;12.95;;
63555;SDS011;49700;48.072;7.800;2023-01-26T07:30:51;28.73;;;13.20;;
63555;SDS011;49700;48.072;7.800;2023-01-26T07:33:19;22.75;;;12.88;;
63555;SDS011;49700;48.072;7.800;2023-01-26T07:35:52;27.88;;;14.63;;
63555;SDS011;49700;48.072;7.800;2023-01-26T07:41:24;21.90;;;12.07;;
63555;SDS011;49700;48.072;7.800;2023-01-26T07:43:55;20.15;;;12.77;;
63555;SDS011;49700;48.072;7.800;2023-01-26T07:46:28;26.48;;;11.20;;
63555;SDS011;49700;48.072;7.800;2023-01-26T07:49:31;23.67;;;12.52;;
63555;SDS011;49700;48.072;7.800;2023-01-26T07:52:03;24.05;;;11.80;;
63555;SDS011;49700;48.072;7.800;2023-01-26T07:54:31;17.92;;;11.85;;
63555;SDS011;49700;48.072;7.800;2023-01-26T07:57:11;18.63;;;12.57;;
63555;SDS011;49700;48.072;7.800;2023-01-26T07:59:37;25.27;;;12.82;;
63555;SDS011;49700;48.072;7.800;2023-01-26T08:02:05;22.48;;;13.70;;
63555;SDS011;49700;48.072;7.800;2023-01-26T08:04:35;29.10;;;17.02;;
63555;SDS011;49700;48.072;7.800;2023-01-26T08:07:13;22.67;;;13.35;;
63555;SDS011;49700;48.072;7.800;2023-01-26T08:09:55;26.85;;;14.55;;
63555;SDS011;49700;48.072;7.800;2023-01-26T08:12:23;25.90;;;13.60;;
63555;SDS011;49700;48.072;7.800;2023-01-26T08:15:20;22.55;;;12.60;;
63555;SDS011;49700;48.072;7.800;2023-01-26T08:17:52;29.08;;;14.07;;
63555;SDS011;49700;48.072;7.800;2023-01-26T08:20:52;26.38;;;14.70;;
63555;SDS011;49700;48.072;7.800;2023-01-26T08:23:18;24.02;;;13.30;;
63555;SDS011;49700;48.072;7.800;2023-01-26T08:26:08;22.35;;;12.52;;
63555;SDS011;49700;48.072;7.800;2023-01-26T08:28:56;24.20;;;15.30;;
63555;SDS011;49700;48.072;7.800;2023-01-26T08:31:54;26.25;;;12.00;;
63555;SDS011;49700;48.072;7.800;2023-01-26T08:35:00;29.85;;;17.23;;
63555;SDS011;49700;48.072;7.800;2023-01-26T08:37:57;29.45;;;16.40;;
63555;SDS011;49700;48.072;7.800;2023-01-26T08:40:55;23.95;;;13.52;;
63555;SDS011;49700;48.072;7.800;2023-01-26T08:43:29;29.30;;;15.82;;
63555;SDS011;49700;48.072;7.800;2023-01-26T08:46:23;21.00;;;13.20;;
63555;SDS011;49700;48.072;7.800;2023-01-26T08:49:22;26.58;;;16.20;;
63555;SDS011;49700;48.072;7.800;2023-01-26T08:51:58;27.25;;;13.88;;
63555;SDS011;49700;48.072;7.800;2023-01-26T08:55:05;20.15;;;11.05;;
63555;SDS011;49700;48.072;7.800;2023-01-26T08:57:35;28.63;;;14.73;;
63555;SDS011;49700;48.072;7.800;2023-01-26T09:00:13;27.60;;;15.90;;
63555;SDS011;49700;48.072;7.800;2023-01-26T09:02:40;26.70;;;14.48;;
63555;SDS011;49700;48.072;7.800;2023-01-26T09:05:25;30.42;;;14.93;;
63555;SDS011;49700;48.072;7.800;2023-01-26T09:08:02;30.52;;;14.25;;
63555;SDS011;49700;48.072;7.800;2023-01-26T09:10:52;28.80;;;13.48;;
63555;SDS011;49700;48.072;7.800;2023-01-26T09:13:33;30.70;;;13.88;;
63555;SDS011;49700;48.072;7.800;2023-01-26T09:16:19;29.00;;;14.60;;
63555;SDS011;49700;48.072;7.800;2023-01-26T09:18:53;23.48;;;14.57;;
63555;SDS011;49700;48.072;7.800;2023-01-26T09:21:25;30.55;;;14.27;;
63555;SDS011;49700;48.072;7.800;2023-01-26T09:24:00;29.95;;;14.88;;
63555;SDS011;49700;48.072;7.800;2023-01-26T09:26:39;21.15;;;14.27;;
63555;SDS011;49700;48.072;7.800;2023-01-26T09:29:22;21.27;;;12.43;;
63555;SDS011;49700;48.072;7.800;2023-01-26T09:32:22;34.22;;;14.20;;
63555;SDS011;49700;48.072;7.800;2023-01-26T09:35:14;31.20;;;18.13;;
63555;SDS011;49700;48.072;7.800;2023-01-26T09:37:44;33.97;;;15.52;;
63555;SDS011;49700;48.072;7.800;2023-01-26T09:46:39;20.95;;;11.55;;
63555;SDS011;49700;48.072;7.800;2023-01-26T09:49:23;25.90;;;13.35;;
63555;SDS011;49700;48.072;7.800;2023-01-26T09:52:08;24.88;;;13.20;;
63555;SDS011;49700;48.072;7.800;2023-01-26T09:55:07;25.20;;;12.93;;
63555;SDS011;49700;48.072;7.800;2023-01-26T09:58:28;16.67;;;9.30;;
63555;SDS011;49700;48.072;7.800;2023-01-26T10:01:23;20.05;;;12.05;;
63555;SDS011;49700;48.072;7.800;2023-01-26T10:04:06;31.52;;;17.35;;
63555;SDS011;49700;48.072;7.800;2023-01-26T10:07:10;26.75;;;14.07;;
63555;SDS011;49700;48.072;7.800;2023-01-26T10:09:45;27.27;;;13.95;;
63555;SDS011;49700;48.072;7.800;2023-01-26T10:12:24;26.73;;;14.15;;
63555;SDS011;49700;48.072;7.800;2023-01-26T10:14:53;25.50;;;14.50;;
63555;SDS011;49700;48.072;7.800;2023-01-26T10:17:29;25.48;;;14.68;;
63555;SDS011;49700;48.072;7.800;2023-01-26T10:20:04;20.15;;;12.75;;
63555;SDS011;49700;48.072;7.800;2023-01-26T10:23:04;16.52;;;9.13;;
63555;SDS011;49700;48.072;7.800;2023-01-26T10:28:38;16.92;;;10.30;;
63555;SDS011;49700;48.072;7.800;2023-01-26T10:31:07;23.80;;;12.90;;
63555;SDS011;49700;48.072;7.800;2023-01-26T10:33:39;24.43;;;13.07;;
63555;SDS011;49700;48.072;7.800;2023-01-26T10:36:18;20.42;;;12.13;;
63555;SDS011;49700;48.072;7.800;2023-01-26T10:38:44;16.77;;;10.80;;
63555;SDS011;49700;48.072;7.800;2023-01-26T10:43:41;21.85;;;10.15;;
63555;SDS011;49700;48.072;7.800;2023-01-26T10:46:25;17.48;;;9.57;;
63555;SDS011;49700;48.072;7.800;2023-01-26T10:48:56;19.50;;;11.02;;
63555;SDS011;49700;48.072;7.800;2023-01-26T10:51:25;17.65;;;10.90;;
63555;SDS011;49700;48.072;7.800;2023-01-26T10:54:29;20.30;;;11.50;;
63555;SDS011;49700;48.072;7.800;2023-01-26T11:02:32;21.70;;;10.73;;
63555;SDS011;49700;48.072;7.800;2023-01-26T11:07:30;23.50;;;12.35;;
63555;SDS011;49700;48.072;7.800;2023-01-26T11:12:50;24.25;;;11.15;;
63555;SDS011;49700;48.072;7.800;2023-01-26T11:15:32;24.13;;;10.20;;
63555;SDS011;49700;48.072;7.800;2023-01-26T11:18:01;19.33;;;11.25;;
63555;SDS011;49700;48.072;7.800;2023-01-26T11:20:58;22.30;;;12.30;;
63555;SDS011;49700;48.072;7.800;2023-01-26T11:29:23;18.48;;;7.97;;
63555;SDS011;49700;48.072;7.800;2023-01-26T11:32:02;17.67;;;8.55;;
63555;SDS011;49700;48.072;7.800;2023-01-26T11:34:42;11.93;;;7.95;;
63555;SDS011;49700;48.072;7.800;2023-01-26T11:43:05;18.65;;;10.90;;
63555;SDS011;49700;48.072;7.800;2023-01-26T11:45:56;21.10;;;12.45;;
63555;SDS011;49700;48.072;7.800;2023-01-26T11:56:39;19.83;;;8.73;;
63555;SDS011;49700;48.072;7.800;2023-01-26T11:59:18;11.68;;;8.80;;
63555;SDS011;49700;48.072;7.800;2023-01-26T12:01:52;13.15;;;8.15;;
63555;SDS011;49700;48.072;7.800;2023-01-26T12:04:24;17.50;;;9.85;;
63555;SDS011;49700;48.072;7.800;2023-01-26T12:07:12;17.37;;;11.77;;
63555;SDS011;49700;48.072;7.800;2023-01-26T12:09:40;25.27;;;13.13;;
63555;SDS011;49700;48.072;7.800;2023-01-26T12:12:11;24.15;;;12.70;;
63555;SDS011;49700;48.072;7.800;2023-01-26T12:17:29;19.50;;;10.73;;
63555;SDS011;49700;48.072;7.800;2023-01-26T12:23:05;13.57;;;7.43;;
63555;SDS011;49700;48.072;7.800;2023-01-26T12:28:07;18.77;;;9.07;;
63555;SDS011;49700;48.072;7.800;2023-01-26T12:31:02;12.75;;;8.60;;
63555;SDS011;49700;48.072;7.800;2023-01-26T12:33:48;13.10;;;7.75;;
63555;SDS011;49700;48.072;7.800;2023-01-26T12:49:34;11.20;;;8.60;;
63555;SDS011;49700;48.072;7.800;2023-01-26T12:52:10;20.00;;;9.20;;
63555;SDS011;49700;48.072;7.800;2023-01-26T12:54:54;13.73;;;8.15;;
63555;SDS011;49700;48.072;7.800;2023-01-26T12:57:25;15.93;;;7.10;;
63555;SDS011;49700;48.072;7.800;2023-01-26T13:00:06;13.68;;;8.02;;
63555;SDS011;49700;48.072;7.800;2023-01-26T13:02:48;12.52;;;7.82;;
63555;SDS011;49700;48.072;7.800;2023-01-26T13:05:28;14.02;;;6.93;;
63555;SDS011;49700;48.072;7.800;2023-01-26T13:07:54;15.07;;;8.23;;
63555;SDS011;49700;48.072;7.800;2023-01-26T13:10:21;12.97;;;7.77;;
63555;SDS011;49700;48.072;7.800;2023-01-26T13:15:23;14.10;;;8.10;;
63555;SDS011;49700;48.072;7.800;2023-01-26T13:28:49;15.85;;;9.13;;
63555;SDS011;49700;48.072;7.800;2023-01-26T13:31:31;14.30;;;9.67;;
63555;SDS011;49700;48.072;7.800;2023-01-26T13:33:59;17.20;;;10.68;;
63555;SDS011;49700;48.072;7.800;2023-01-26T13:36:28;17.45;;;10.48;;
63555;SDS011;49700;48.072;7.800;2023-01-26T13:38:59;14.13;;;9.50;;
63555;SDS011;49700;48.072;7.800;2023-01-26T13:41:29;16.45;;;9.00;;
63555;SDS011;49700;48.072;7.800;2023-01-26T13:43:56;14.17;;;8.50;;
63555;SDS011;49700;48.072;7.800;2023-01-26T13:46:35;21.48;;;10.93;;
63555;SDS011;49700;48.072;7.800;2023-01-26T13:49:04;15.52;;;8.88;;
63555;SDS011;49700;48.072;7.800;2023-01-26T13:51:46;15.55;;;7.80;;
63555;SDS011;49700;48.072;7.800;2023-01-26T13:54:12;9.10;;;7.27;;
63555;SDS011;49700;48.072;7.800;2023-01-26T13:57:22;14.68;;;8.23;;
63555;SDS011;49700;48.072;7.800;2023-01-26T13:59:28;18.00;;;9.63;;
63555;SDS011;49700;48.072;7.800;2023-01-26T14:01:55;21.23;;;9.43;;
63555;SDS011;49700;48.072;7.800;2023-01-26T14:04:25;20.15;;;9.90;;
63555;SDS011;49700;48.072;7.800;2023-01-26T14:07:12;14.20;;;8.48;;
63555;SDS011;49700;48.072;7.800;2023-01-26T14:09:51;17.08;;;8.60;;
63555;SDS011;49700;48.072;7.800;2023-01-26T14:12:27;14.68;;;9.48;;
63555;SDS011;49700;48.072;7.800;2023-01-26T14:14:56;16.35;;;9.30;;
63555;SDS011;49700;48.072;7.800;2023-01-26T14:17:26;11.32;;;7.85;;
63555;SDS011;49700;48.072;7.800;2023-01-26T14:19:53;11.60;;;9.00;;
63555;SDS011;49700;48.072;7.800;2023-01-26T14:22:19;15.43;;;9.57;;
63555;SDS011;49700;48.072;7.800;2023-01-26T14:24:51;17.60;;;8.47;;
63555;SDS011;49700;48.072;7.800;2023-01-26T14:27:28;18.08;;;9.05;;
63555;SDS011;49700;48.072;7.800;2023-01-26T14:30:05;14.93;;;8.73;;
63555;SDS011;49700;48.072;7.800;2023-01-26T14:32:47;20.23;;;10.98;;
63555;SDS011;49700;48.072;7.800;2023-01-26T14:35:19;21.70;;;13.30;;
63555;SDS011;49700;48.072;7.800;2023-01-26T14:37:47;18.20;;;10.45;;
63555;SDS011;49700;48.072;7.800;2023-01-26T14:40:21;23.50;;;11.00;;
63555;SDS011;49700;48.072;7.800;2023-01-26T14:42:48;11.65;;;7.85;;
63555;SDS011;49700;48.072;7.800;2023-01-26T14:45:17;22.83;;;10.38;;
63555;SDS011;49700;48.072;7.800;2023-01-26T14:47:55;15.38;;;10.57;;
63555;SDS011;49700;48.072;7.800;2023-01-26T14:50:29;16.75;;;10.50;;
63555;SDS011;49700;48.072;7.800;2023-01-26T14:52:58;20.48;;;11.25;;
63555;SDS011;49700;48.072;7.800;2023-01-26T14:55:26;17.75;;;10.45;;
63555;SDS011;49700;48.072;7.800;2023-01-26T14:57:54;21.50;;;9.23;;
63555;SDS011;49700;48.072;7.800;2023-01-26T15:00:30;16.92;;;10.50;;
63555;SDS011;49700;48.072;7.800;2023-01-26T15:02:59;15.65;;;10.88;;
63555;SDS011;49700;48.072;7.800;2023-01-26T15:05:33;21.67;;;14.90;;
63555;SDS011;49700;48.072;7.800;2023-01-26T15:08:04;20.95;;;12.48;;
63555;SDS011;49700;48.072;7.800;2023-01-26T15:10:52;22.00;;;12.25;;
63555;SDS011;49700;48.072;7.800;2023-01-26T15:13:40;19.30;;;11.30;;
63555;SDS011;49700;48.072;7.800;2023-01-26T15:16:12;19.35;;;11.48;;
63555;SDS011;49700;48.072;7.800;2023-01-26T15:18:41;21.40;;;13.00;;
63555;SDS011;49700;48.072;7.800;2023-01-26T15:21:19;16.00;;;11.03;;
63555;SDS011;49700;48.072;7.800;2023-01-26T15:23:49;16.90;;;10.52;;
63555;SDS011;49700;48.072;7.800;2023-01-26T15:28:51;19.98;;;11.50;;
63555;SDS011;49700;48.072;7.800;2023-01-26T15:31:19;16.67;;;10.55;;
63555;SDS011;49700;48.072;7.800;2023-01-26T15:33:50;16.42;;;10.27;;
63555;SDS011;49700;48.072;7.800;2023-01-26T15:36:21;19.40;;;13.35;;
63555;SDS011;49700;48.072;7.800;2023-01-26T15:38:48;13.48;;;9.52;;
63555;SDS011;49700;48.072;7.800;2023-01-26T15:41:15;18.88;;;11.02;;
63555;SDS011;49700;48.072;7.800;2023-01-26T15:43:40;13.70;;;7.20;;
63555;SDS011;49700;48.072;7.800;2023-01-26T15:46:06;14.13;;;8.43;;
63555;SDS011;49700;48.072;7.800;2023-01-26T15:48:33;13.15;;;7.75;;
63555;SDS011;49700;48.072;7.800;2023-01-26T15:50:59;17.60;;;8.00;;
63555;SDS011;49700;48.072;7.800;2023-01-26T15:53:25;12.90;;;8.37;;
63555;SDS011;49700;48.072;7.800;2023-01-26T15:55:54;15.05;;;8.48;;
63555;SDS011;49700;48.072;7.800;2023-01-26T15:58:21;10.88;;;6.80;;
63555;SDS011;49700;48.072;7.800;2023-01-26T16:00:47;12.88;;;8.90;;
63555;SDS011;49700;48.072;7.800;2023-01-26T16:03:17;13.50;;;7.45;;
63555;SDS011;49700;48.072;7.800;2023-01-26T16:05:44;15.27;;;10.13;;
63555;SDS011;49700;48.072;7.800;2023-01-26T16:08:15;15.25;;;9.32;;
63555;SDS011;49700;48.072;7.800;2023-01-26T16:10:41;16.10;;;9.95;;
63555;SDS011;49700;48.072;7.800;2023-01-26T16:13:09;14.95;;;7.93;;
63555;SDS011;49700;48.072;7.800;2023-01-26T16:15:39;19.35;;;8.93;;
63555;SDS011;49700;48.072;7.800;2023-01-26T16:18:07;14.15;;;9.73;;
63555;SDS011;49700;48.072;7.800;2023-01-26T16:20:33;16.23;;;9.10;;
63555;SDS011;49700;48.072;7.800;2023-01-26T16:23:00;14.35;;;8.88;;
63555;SDS011;49700;48.072;7.800;2023-01-26T16:25:27;16.23;;;10.37;;
63555;SDS011;49700;48.072;7.800;2023-01-26T16:27:58;12.40;;;8.35;;
63555;SDS011;49700;48.072;7.800;2023-01-26T16:30:24;13.00;;;8.07;;
63555;SDS011;49700;48.072;7.800;2023-01-26T16:32:50;15.02;;;9.27;;
63555;SDS011;49700;48.072;7.800;2023-01-26T16:35:17;18.58;;;12.73;;
63555;SDS011;49700;48.072;7.800;2023-01-26T16:37:44;13.40;;;7.47;;
63555;SDS011;49700;48.072;7.800;2023-01-26T16:40:11;14.50;;;8.23;;
63555;SDS011;49700;48.072;7.800;2023-01-26T16:42:39;11.18;;;8.55;;
63555;SDS011;49700;48.072;7.800;2023-01-26T16:45:15;14.65;;;9.23;;
63555;SDS011;49700;48.072;7.800;2023-01-26T16:47:48;21.42;;;11.00;;
63555;SDS011;49700;48.072;7.800;2023-01-26T16:50:16;17.52;;;10.35;;
63555;SDS011;49700;48.072;7.800;2023-01-26T16:52:42;14.82;;;8.38;;
63555;SDS011;49700;48.072;7.800;2023-01-26T16:55:09;16.03;;;12.23;;
63555;SDS011;49700;48.072;7.800;2023-01-26T16:57:40;11.85;;;8.52;;
63555;SDS011;49700;48.072;7.800;2023-01-26T17:00:09;14.27;;;9.25;;
63555;SDS011;49700;48.072;7.800;2023-01-26T17:02:38;13.35;;;9.85;;
63555;SDS011;49700;48.072;7.800;2023-01-26T17:05:05;11.65;;;7.88;;